createdAt,value
2019-05-17T00:01:37.581Z,101206.78
2019-05-17T00:04:13.265Z,101195.36
2019-05-17T00:06:41.102Z,101192.63
2019-05-17T00:09:09.000Z,101185.40
2019-05-17T00:11:36.982Z,101184.36
2019-05-17T00:14:06.340Z,101178.22
2019-05-17T00:16:34.320Z,101178.70
2019-05-17T00:19:02.067Z,101170.03
2019-05-17T00:21:30.284Z,101162.81
2019-05-17T00:23:59.108Z,101161.38
2019-05-17T00:26:28.552Z,101155.73
2019-05-17T00:28:56.384Z,101151.05
2019-05-17T00:31:26.283Z,101140.67
2019-05-17T00:33:56.446Z,101141.05
2019-05-17T00:36:26.771Z,101137.48
2019-05-17T00:38:56.644Z,101136.09
2019-05-17T00:41:26.874Z,101127.08
2019-05-17T00:43:56.844Z,101129.52
2019-05-17T00:46:26.654Z,101127.47
2019-05-17T00:48:57.131Z,101126.26
2019-05-17T00:51:27.235Z,101122.68
2019-05-17T00:53:56.261Z,101125.66
2019-05-17T00:56:26.471Z,101124.00
2019-05-17T00:58:53.862Z,101121.25
2019-05-17T01:01:21.668Z,101116.81
2019-05-17T01:03:49.489Z,101119.55
2019-05-17T01:06:17.194Z,101112.03
2019-05-17T01:08:47.485Z,101112.38
2019-05-17T01:11:16.542Z,101112.48
2019-05-17T01:13:46.340Z,101109.01
2019-05-17T01:16:13.820Z,101102.73
2019-05-17T01:18:41.647Z,101108.84
2019-05-17T01:21:09.340Z,101095.48
2019-05-17T01:23:37.065Z,101098.61
2019-05-17T01:26:07.322Z,101083.77
2019-05-17T01:28:36.297Z,101089.45
2019-05-17T01:31:06.480Z,101084.87
2019-05-17T01:33:36.569Z,101084.50
2019-05-17T01:36:06.786Z,101085.45
2019-05-17T01:38:37.417Z,101078.75
2019-05-17T01:41:06.832Z,101076.70
2019-05-17T01:43:36.589Z,101081.42
2019-05-17T01:46:03.999Z,101071.55
2019-05-17T01:48:31.926Z,101074.98
2019-05-17T01:50:59.677Z,101070.92
2019-05-17T01:53:27.386Z,101072.08
2019-05-17T01:55:56.787Z,101069.50
2019-05-17T01:58:27.081Z,101063.47
2019-05-17T02:00:57.397Z,101066.76
2019-05-17T02:03:26.772Z,101069.95
2019-05-17T02:05:56.620Z,101065.27
2019-05-17T02:08:26.463Z,101063.99
2019-05-17T02:10:54.364Z,101058.62
2019-05-17T02:13:22.202Z,101055.61
2019-05-17T02:15:50.161Z,101052.86
2019-05-17T02:18:17.906Z,101050.44
2019-05-17T02:20:46.416Z,101058.55
2019-05-17T02:23:14.529Z,101054.50
2019-05-17T02:25:42.259Z,101052.24
2019-05-17T02:28:12.171Z,101052.41
2019-05-17T02:30:43.882Z,101049.05
2019-05-17T02:33:12.665Z,101048.57
2019-05-17T02:35:42.896Z,101045.87
2019-05-17T02:38:13.017Z,101043.23
2019-05-17T02:40:42.842Z,101040.70
2019-05-17T02:43:09.405Z,101036.09
2019-05-17T02:45:37.279Z,101033.77
2019-05-17T02:48:04.986Z,101038.38
2019-05-17T02:50:36.252Z,101033.08
2019-05-17T02:53:04.846Z,101035.75
2019-05-17T02:55:32.761Z,101032.66
2019-05-17T02:58:02.903Z,101035.75
2019-05-17T03:00:33.865Z,101035.47
2019-05-17T03:03:02.988Z,101034.47
2019-05-17T03:05:29.616Z,101034.09
2019-05-17T03:07:57.415Z,101032.31
2019-05-17T03:10:29.028Z,101027.05
2019-05-17T03:12:54.843Z,101028.09
2019-05-17T03:15:23.559Z,101028.53
2019-05-17T03:17:53.676Z,101025.62
2019-05-17T03:20:23.322Z,101027.88
2019-05-17T03:22:52.533Z,101031.17
2019-05-17T03:25:23.617Z,101028.84
2019-05-17T03:27:53.364Z,101024.52
2019-05-17T03:30:25.298Z,101021.50
2019-05-17T03:32:55.564Z,101023.75
2019-05-17T03:35:25.724Z,101016.69
2019-05-17T03:37:52.907Z,101015.02
2019-05-17T03:40:43.649Z,101012.31
2019-05-17T03:42:49.174Z,101013.63
2019-05-17T03:45:16.911Z,101013.25
2019-05-17T03:47:45.027Z,101018.80
2019-05-17T03:50:13.744Z,101012.04
2019-05-17T03:52:44.442Z,101011.94
2019-05-17T03:55:13.124Z,101003.76
2019-05-17T03:57:44.179Z,101004.03
2019-05-17T04:00:15.198Z,101003.27
2019-05-17T04:02:44.549Z,101009.48
2019-05-17T04:05:13.028Z,101004.97
2019-05-17T04:07:43.496Z,101004.66
2019-05-17T04:10:14.622Z,101002.51
2019-05-17T04:12:43.641Z,101002.23
2019-05-17T04:15:13.459Z,100998.28
2019-05-17T04:17:43.831Z,100996.86
2019-05-17T04:20:13.493Z,101000.19
2019-05-17T04:22:44.115Z,101002.44
2019-05-17T04:25:13.417Z,101000.02
2019-05-17T04:27:43.529Z,100994.64
2019-05-17T04:30:12.557Z,100998.59
2019-05-17T04:32:43.594Z,100999.15
2019-05-17T04:35:13.020Z,100992.56
2019-05-17T04:37:40.069Z,100991.45
2019-05-17T04:40:08.266Z,100989.13
2019-05-17T04:42:36.520Z,100987.53
2019-05-17T04:45:05.072Z,100993.08
2019-05-17T04:47:33.563Z,100995.78
2019-05-17T04:50:03.930Z,101000.64
2019-05-17T04:52:33.651Z,100996.31
2019-05-17T04:55:04.165Z,100995.96
2019-05-17T04:57:32.543Z,100993.88
2019-05-17T05:00:03.827Z,100993.88
2019-05-17T05:02:33.171Z,100992.19
2019-05-17T05:05:03.349Z,100996.31
2019-05-17T05:07:33.590Z,100996.77
2019-05-17T05:10:02.965Z,100997.03
2019-05-17T05:12:33.538Z,100990.13
2019-05-17T05:15:03.583Z,100998.48
2019-05-17T05:17:32.986Z,100991.95
2019-05-17T05:20:02.824Z,100996.63
2019-05-17T05:22:32.969Z,100998.28
2019-05-17T05:25:02.143Z,100997.56
2019-05-17T05:27:31.628Z,100993.86
2019-05-17T05:29:59.989Z,100994.30
2019-05-17T05:32:27.736Z,100989.42
2019-05-17T05:34:55.641Z,100991.50
2019-05-17T05:37:23.490Z,100991.01
2019-05-17T05:39:54.428Z,100990.50
2019-05-17T05:42:22.193Z,100992.14
2019-05-17T05:44:52.258Z,100996.60
2019-05-17T05:47:22.067Z,100992.46
2019-05-17T05:49:51.913Z,100995.34
2019-05-17T05:52:21.898Z,100996.93
2019-05-17T05:54:51.924Z,100992.59
2019-05-17T05:57:21.853Z,100992.51
2019-05-17T05:59:51.824Z,101000.53
2019-05-17T06:02:21.790Z,100997.23
2019-05-17T06:04:51.686Z,100998.41
2019-05-17T06:07:21.471Z,100996.07
2019-05-17T06:09:51.756Z,100991.38
2019-05-17T06:12:24.752Z,100986.36
2019-05-17T06:14:49.408Z,100989.45
2019-05-17T06:17:17.270Z,100988.55
2019-05-17T06:19:44.947Z,100984.55
2019-05-17T06:22:12.845Z,100988.23
2019-05-17T06:24:42.698Z,100986.19
2019-05-17T06:27:12.364Z,100991.41
2019-05-17T06:29:41.510Z,100990.75
2019-05-17T06:32:11.901Z,100995.16
2019-05-17T06:34:42.058Z,100994.84
2019-05-17T06:37:09.564Z,100991.15
2019-05-17T06:39:37.264Z,100988.28
2019-05-17T06:42:05.182Z,100988.11
2019-05-17T06:44:33.581Z,100983.73
2019-05-17T06:47:02.646Z,100988.01
2019-05-17T06:49:31.806Z,100983.83
2019-05-17T06:52:02.342Z,100985.73
2019-05-17T06:54:29.963Z,100978.88
2019-05-17T06:57:03.081Z,100985.62
2019-05-17T06:59:30.942Z,100982.53
2019-05-17T07:01:59.735Z,100977.08
2019-05-17T07:04:29.894Z,100975.14
2019-05-17T07:07:15.470Z,100973.39
2019-05-17T07:09:44.388Z,100976.02
2019-05-17T07:12:12.274Z,100971.85
2019-05-17T07:14:40.180Z,100970.88
2019-05-17T07:17:10.064Z,100971.14
2019-05-17T07:19:40.044Z,100962.31
2019-05-17T07:22:09.559Z,100967.98
2019-05-17T07:24:39.712Z,100963.14
2019-05-17T07:27:07.322Z,100961.81
2019-05-17T07:29:35.108Z,100962.02
2019-05-17T07:32:02.814Z,100955.28
2019-05-17T07:34:30.935Z,100958.67
2019-05-17T07:36:59.760Z,100958.13
2019-05-17T07:39:29.524Z,100951.91
2019-05-17T07:41:59.873Z,100948.62
2019-05-17T07:44:29.515Z,100941.65
2019-05-17T07:46:57.526Z,100936.81
2019-05-17T07:49:25.247Z,100937.48
2019-05-17T07:51:53.058Z,100931.23
2019-05-17T07:54:20.894Z,100929.04
2019-05-17T07:56:50.568Z,100924.73
2019-05-17T07:59:19.976Z,100928.72
2019-05-17T08:01:50.212Z,100926.31
2019-05-17T08:04:20.490Z,100920.53
2019-05-17T08:06:50.555Z,100925.03
2019-05-17T08:09:20.451Z,100925.06
2019-05-17T08:11:50.206Z,100918.92
2019-05-17T08:14:29.362Z,100907.84
2019-05-17T08:16:50.071Z,100904.94
2019-05-17T08:19:17.618Z,100899.69
2019-05-17T08:21:45.471Z,100906.98
2019-05-17T08:24:13.262Z,100899.07
2019-05-17T08:26:41.948Z,100896.59
2019-05-17T08:29:10.037Z,100894.61
2019-05-17T08:31:40.197Z,100884.39
2019-05-17T08:34:10.211Z,100889.20
2019-05-17T08:36:37.436Z,100884.03
2019-05-17T08:39:06.279Z,100885.63
2019-05-17T08:41:34.074Z,100883.97
2019-05-17T08:44:02.156Z,100879.12
2019-05-17T08:46:30.595Z,100870.63
2019-05-17T08:49:00.284Z,100873.34
2019-05-17T08:51:30.316Z,100871.72
2019-05-17T08:54:00.026Z,100877.45
2019-05-17T08:56:27.910Z,100870.08
2019-05-17T08:58:55.615Z,100869.05
2019-05-17T09:01:23.584Z,100865.66
2019-05-17T09:03:51.530Z,100874.48
2019-05-17T09:06:19.940Z,100868.53
2019-05-17T09:08:49.910Z,100868.83
2019-05-17T09:11:19.545Z,100868.13
2019-05-17T09:13:57.220Z,100863.78
2019-05-17T09:16:19.541Z,100856.19
2019-05-17T09:18:47.152Z,100857.52
2019-05-17T09:21:15.251Z,100858.33
2019-05-17T09:23:43.477Z,100864.83
2019-05-17T09:26:11.573Z,100848.80
2019-05-17T09:28:39.572Z,100854.54
2019-05-17T09:31:10.226Z,100844.95
2019-05-17T09:33:37.650Z,100847.44
2019-05-17T09:36:06.524Z,100845.48
2019-05-17T09:38:34.391Z,100845.32
2019-05-17T09:41:02.141Z,100843.77
2019-05-17T09:43:30.052Z,100840.55
2019-05-17T09:45:58.047Z,100841.73
2019-05-17T09:48:25.807Z,100843.58
2019-05-17T09:50:54.102Z,100842.08
2019-05-17T09:53:22.677Z,100836.86
2019-05-17T09:55:50.414Z,100832.97
2019-05-17T09:58:21.421Z,100830.10
2019-05-17T10:00:49.608Z,100824.92
2019-05-17T10:03:23.265Z,100829.74
2019-05-17T10:05:49.534Z,100823.83
2019-05-17T10:08:19.307Z,100825.03
2019-05-17T10:11:04.229Z,100822.02
2019-05-17T10:13:21.445Z,100820.55
2019-05-17T10:15:50.012Z,100830.56
2019-05-17T10:18:20.005Z,100823.13
2019-05-17T10:20:50.478Z,100814.48
2019-05-17T10:23:19.679Z,100814.67
2019-05-17T10:25:47.534Z,100813.80
2019-05-17T10:28:15.295Z,100799.91
2019-05-17T10:30:43.136Z,100806.81
2019-05-17T10:33:11.390Z,100797.30
2019-05-17T10:35:40.744Z,100795.07
2019-05-17T10:38:10.335Z,100788.97
2019-05-17T10:40:40.819Z,100793.75
2019-05-17T10:43:10.041Z,100797.52
2019-05-17T10:45:40.917Z,100795.34
2019-05-17T10:48:10.202Z,100792.09
2019-05-17T10:50:40.753Z,100791.29
2019-05-17T10:53:10.055Z,100788.76
2019-05-17T10:55:39.678Z,100785.95
2019-05-17T10:58:10.072Z,100786.51
2019-05-17T11:00:37.712Z,100789.33
2019-05-17T11:03:05.945Z,100780.86
2019-05-17T11:05:33.723Z,100790.39
2019-05-17T11:08:03.534Z,100782.03
2019-05-17T11:10:31.880Z,100783.23
2019-05-17T11:12:59.748Z,100780.27
2019-05-17T11:15:29.395Z,100780.72
2019-05-17T11:17:57.266Z,100779.80
2019-05-17T11:20:25.028Z,100780.52
2019-05-17T11:22:54.554Z,100784.90
2019-05-17T11:25:22.312Z,100785.77
2019-05-17T11:27:52.802Z,100793.95
2019-05-17T11:30:21.062Z,100787.25
2019-05-17T11:32:48.837Z,100790.53
2019-05-17T11:35:17.375Z,100793.53
2019-05-17T11:37:46.989Z,100788.81
2019-05-17T11:40:16.589Z,100787.91
2019-05-17T11:42:46.431Z,100791.53
2019-05-17T11:45:26.772Z,100794.94
2019-05-17T11:47:45.890Z,100785.77
2019-05-17T11:50:14.342Z,100781.58
2019-05-17T11:52:43.653Z,100786.91
2019-05-17T11:55:12.853Z,100781.09
2019-05-17T11:57:40.641Z,100783.20
2019-05-17T12:00:12.427Z,100782.84
2019-05-17T12:02:42.197Z,100788.13
2019-05-17T12:05:10.192Z,100786.30
2019-05-17T12:07:38.083Z,100783.77
2019-05-17T12:10:08.008Z,100782.20
2019-05-17T12:12:36.222Z,100782.33
2019-05-17T12:15:06.946Z,100785.27
2019-05-17T12:17:34.693Z,100785.17
2019-05-17T12:20:02.754Z,100782.70
2019-05-17T12:22:32.560Z,100787.59
2019-05-17T12:25:00.287Z,100782.11
2019-05-17T12:27:29.135Z,100780.94
2019-05-17T12:29:56.919Z,100782.36
2019-05-17T12:32:25.243Z,100787.56
2019-05-17T12:34:53.981Z,100782.66
2019-05-17T12:37:23.574Z,100790.50
2019-05-17T12:39:52.554Z,100785.59
2019-05-17T12:42:21.596Z,100779.13
2019-05-17T12:44:49.362Z,100783.84
2019-05-17T12:47:17.550Z,100781.73
2019-05-17T12:49:45.463Z,100777.77
2019-05-17T12:52:13.391Z,100781.20
2019-05-17T12:54:41.506Z,100775.65
2019-05-17T12:57:09.286Z,100773.94
2019-05-17T12:59:37.252Z,100775.89
2019-05-17T13:02:05.254Z,100775.92
2019-05-17T13:04:33.081Z,100773.55
2019-05-17T13:07:01.075Z,100769.22
2019-05-17T13:09:29.364Z,100769.27
2019-05-17T13:11:58.938Z,100775.34
2019-05-17T13:14:26.707Z,100767.64
2019-05-17T13:16:54.706Z,100770.57
2019-05-17T13:19:25.253Z,100768.64
2019-05-17T13:21:52.238Z,100773.20
2019-05-17T13:24:20.131Z,100774.78
2019-05-17T13:26:47.907Z,100771.66
2019-05-17T13:29:15.860Z,100765.15
2019-05-17T13:31:44.032Z,100763.11
2019-05-17T13:34:13.557Z,100766.48
2019-05-17T13:36:41.280Z,100767.55
2019-05-17T13:39:09.449Z,100773.84
2019-05-17T13:41:37.592Z,100770.86
2019-05-17T13:44:06.169Z,100760.09
2019-05-17T13:46:34.107Z,100758.16
2019-05-17T13:49:02.075Z,100758.61
2019-05-17T13:51:30.746Z,100757.30
2019-05-17T13:54:00.283Z,100756.28
2019-05-17T13:56:28.019Z,100754.17
2019-05-17T13:58:56.385Z,100758.67
2019-05-17T14:01:24.455Z,100760.34
2019-05-17T14:03:52.390Z,100762.75
2019-05-17T14:06:20.559Z,100763.15
2019-05-17T14:08:48.380Z,100762.22
2019-05-17T14:11:16.276Z,100760.05
2019-05-17T14:13:44.047Z,100760.29
2019-05-17T14:16:12.040Z,100764.20
2019-05-17T14:18:39.897Z,100754.91
2019-05-17T14:21:07.967Z,100761.81
2019-05-17T14:23:37.487Z,100763.55
2019-05-17T14:26:05.306Z,100762.64
2019-05-17T14:28:35.730Z,100767.07
2019-05-17T14:31:03.680Z,100765.58
2019-05-17T14:33:31.425Z,100756.56
2019-05-17T14:35:59.195Z,100756.69
2019-05-17T14:38:27.189Z,100755.58
2019-05-17T14:41:10.417Z,100758.01
2019-05-17T14:43:24.931Z,100761.45
2019-05-17T14:45:53.354Z,100751.34
2019-05-17T14:48:21.465Z,100751.28
2019-05-17T14:50:49.827Z,100751.78
2019-05-17T14:53:17.785Z,100748.84
2019-05-17T14:55:47.346Z,100750.67
2019-05-17T14:58:15.790Z,100751.66
2019-05-17T15:00:43.577Z,100753.89
2019-05-17T15:03:11.338Z,100758.80
2019-05-17T15:05:39.325Z,100750.41
2019-05-17T15:08:07.181Z,100751.74
2019-05-17T15:10:34.900Z,100752.39
2019-05-17T15:13:02.741Z,100754.71
2019-05-17T15:15:30.682Z,100756.78
2019-05-17T15:17:58.873Z,100755.77
2019-05-17T15:20:26.742Z,100757.57
2019-05-17T15:22:54.989Z,100752.02
2019-05-17T15:25:23.992Z,100753.45
2019-05-17T15:27:51.726Z,100759.28
2019-05-17T15:30:19.579Z,100747.98
2019-05-17T15:32:47.929Z,100744.97
2019-05-17T15:35:15.727Z,100737.97
2019-05-17T15:37:43.796Z,100746.43
2019-05-17T15:40:12.027Z,100740.91
2019-05-17T15:42:44.536Z,100742.70
2019-05-17T15:45:10.919Z,100739.68
2019-05-17T15:47:38.941Z,100741.22
2019-05-17T15:50:07.492Z,100741.22
2019-05-17T15:52:35.793Z,100741.22
2019-05-17T15:55:05.223Z,100730.28
2019-05-17T15:57:33.029Z,100726.06
2019-05-17T16:00:01.284Z,100731.31
2019-05-17T16:02:29.028Z,100724.55
2019-05-17T16:04:58.606Z,100720.88
2019-05-17T16:07:26.612Z,100720.67
2019-05-17T16:09:54.343Z,100723.91
2019-05-17T16:12:22.133Z,100723.13
2019-05-17T16:14:51.750Z,100722.17
2019-05-17T16:17:19.865Z,100718.69
2019-05-17T16:19:48.223Z,100719.80
2019-05-17T16:22:17.440Z,100714.55
2019-05-17T16:24:45.191Z,100716.01
2019-05-17T16:27:13.055Z,100718.22
2019-05-17T16:29:42.755Z,100718.63
2019-05-17T16:32:10.515Z,100716.28
2019-05-17T16:34:38.409Z,100724.48
2019-05-17T16:37:06.126Z,100722.09
2019-05-17T16:39:34.355Z,100709.36
2019-05-17T16:42:03.834Z,100717.36
2019-05-17T16:44:31.773Z,100715.72
2019-05-17T16:46:59.520Z,100705.99
2019-05-17T16:49:28.560Z,100704.35
2019-05-17T16:51:56.683Z,100707.77
2019-05-17T16:54:24.427Z,100708.04
2019-05-17T16:56:52.325Z,100708.28
2019-05-17T16:59:20.692Z,100707.58
2019-05-17T17:01:48.441Z,100710.61
2019-05-17T17:04:16.350Z,100703.42
2019-05-17T17:06:50.666Z,100704.88
2019-05-17T17:09:18.536Z,100699.31
2019-05-17T17:11:46.738Z,100704.25
2019-05-17T17:14:14.693Z,100700.50
2019-05-17T17:16:42.514Z,100699.67
2019-05-17T17:19:10.661Z,100701.97
2019-05-17T17:21:38.862Z,100701.47
2019-05-17T17:24:06.898Z,100700.28
2019-05-17T17:26:35.591Z,100698.72
2019-05-17T17:29:03.921Z,100707.08
2019-05-17T17:31:31.941Z,100704.20
2019-05-17T17:34:00.001Z,100704.06
2019-05-17T17:36:27.760Z,100698.67
2019-05-17T17:38:55.491Z,100697.61
2019-05-17T17:41:26.662Z,100696.89
2019-05-17T17:43:58.399Z,100694.50
2019-05-17T17:46:24.544Z,100696.69
2019-05-17T17:48:54.233Z,100695.00
2019-05-17T17:51:23.195Z,100694.14
2019-05-17T17:53:50.951Z,100690.94
2019-05-17T17:56:20.684Z,100693.22
2019-05-17T17:58:51.059Z,100695.53
2019-05-17T18:01:18.808Z,100704.44
2019-05-17T18:03:47.067Z,100704.80
2019-05-17T18:06:15.265Z,100703.64
2019-05-17T18:08:42.973Z,100704.11
2019-05-17T18:11:10.745Z,100702.45
2019-05-17T18:13:38.962Z,100706.22
2019-05-17T18:16:06.954Z,100706.45
2019-05-17T18:18:34.690Z,100707.34
2019-05-17T18:21:02.425Z,100705.41
2019-05-17T18:23:30.295Z,100708.32
2019-05-17T18:25:59.164Z,100698.59
2019-05-17T18:28:26.930Z,100706.53
2019-05-17T18:30:54.892Z,100705.69
2019-05-17T18:33:22.914Z,100701.98
2019-05-17T18:35:51.552Z,100703.80
2019-05-17T18:38:23.286Z,100701.87
2019-05-17T18:40:51.033Z,100704.28
2019-05-17T18:43:18.764Z,100710.79
2019-05-17T18:45:47.833Z,100715.64
2019-05-17T18:48:15.709Z,100714.54
2019-05-17T18:50:43.605Z,100714.92
2019-05-17T18:53:16.691Z,100718.52
2019-05-17T18:55:41.283Z,100716.59
2019-05-17T18:58:09.694Z,100715.78
2019-05-17T19:00:37.643Z,100716.37
2019-05-17T19:03:05.536Z,100713.84
2019-05-17T19:05:33.348Z,100715.89
2019-05-17T19:08:01.097Z,100717.43
2019-05-17T19:10:29.696Z,100715.28
2019-05-17T19:12:57.615Z,100713.25
2019-05-17T19:15:25.773Z,100719.63
2019-05-17T19:17:55.352Z,100715.05
2019-05-17T19:20:23.131Z,100716.62
2019-05-17T19:22:51.146Z,100718.53
2019-05-17T19:25:19.028Z,100724.56
2019-05-17T19:27:48.104Z,100716.27
2019-05-17T19:30:16.373Z,100722.63
2019-05-17T19:32:44.136Z,100723.59
2019-05-17T19:35:14.308Z,100722.52
2019-05-17T19:37:42.052Z,100726.36
2019-05-17T19:40:11.972Z,100727.92
2019-05-17T19:42:39.740Z,100720.46
2019-05-17T19:45:08.895Z,100727.44
2019-05-17T19:47:37.176Z,100723.93
2019-05-17T19:50:05.213Z,100730.41
2019-05-17T19:52:33.001Z,100735.36
2019-05-17T19:55:00.957Z,100728.63
2019-05-17T19:57:28.842Z,100731.15
2019-05-17T19:59:58.602Z,100733.55
2019-05-17T20:02:26.735Z,100732.92
2019-05-17T20:04:54.530Z,100726.89
2019-05-17T20:07:24.233Z,100728.95
2019-05-17T20:09:52.441Z,100719.83
2019-05-17T20:12:20.226Z,100733.84
2019-05-17T20:14:48.520Z,100728.03
2019-05-17T20:17:16.485Z,100727.41
2019-05-17T20:19:44.628Z,100728.34
2019-05-17T20:22:12.745Z,100724.98
2019-05-17T20:24:40.833Z,100724.72
2019-05-17T20:27:08.594Z,100730.69
2019-05-17T20:29:36.574Z,100728.52
2019-05-17T20:32:04.427Z,100724.77
2019-05-17T20:34:32.290Z,100728.82
2019-05-17T20:37:00.017Z,100723.27
2019-05-17T20:39:27.943Z,100727.31
2019-05-17T20:41:57.531Z,100730.30
2019-05-17T20:44:25.654Z,100725.11
2019-05-17T20:46:53.599Z,100728.47
2019-05-17T20:49:21.360Z,100717.29
2019-05-17T20:51:51.009Z,100725.20
2019-05-17T20:54:19.306Z,100725.58
2019-05-17T20:56:49.039Z,100720.41
2019-05-17T20:59:17.017Z,100725.69
2019-05-17T21:01:45.261Z,100729.16
2019-05-17T21:04:14.374Z,100725.20
2019-05-17T21:06:42.107Z,100720.98
2019-05-17T21:09:10.271Z,100732.40
2019-05-17T21:11:38.218Z,100726.89
2019-05-17T21:14:05.970Z,100719.13
2019-05-17T21:16:33.837Z,100723.77
2019-05-17T21:19:01.853Z,100717.17
2019-05-17T21:21:29.700Z,100718.23
2019-05-17T21:24:01.976Z,100720.59
2019-05-17T21:26:33.118Z,100720.59
2019-05-17T21:29:00.984Z,100715.43
2019-05-17T21:31:28.902Z,100718.78
2019-05-17T21:33:56.642Z,100716.00
2019-05-17T21:36:24.368Z,100720.53
2019-05-17T21:38:52.342Z,100722.50
2019-05-17T21:41:20.078Z,100720.32
2019-05-17T21:43:49.710Z,100714.12
2019-05-17T21:46:19.404Z,100707.04
2019-05-17T21:48:47.217Z,100714.16
2019-05-17T21:51:15.090Z,100712.58
2019-05-17T21:53:43.570Z,100714.58
2019-05-17T21:56:13.082Z,100710.02
2019-05-17T21:58:41.020Z,100714.08
2019-05-17T22:01:13.797Z,100716.91
2019-05-17T22:03:41.860Z,100704.45
2019-05-17T22:06:11.022Z,100708.85
2019-05-17T22:08:38.736Z,100715.81
2019-05-17T22:11:06.603Z,100708.59
2019-05-17T22:13:35.987Z,100714.08
2019-05-17T22:16:18.498Z,100706.66
2019-05-17T22:18:33.930Z,100716.94
2019-05-17T22:21:02.092Z,100717.72
2019-05-17T22:23:29.835Z,100715.20
2019-05-17T22:25:58.124Z,100719.48
2019-05-17T22:28:26.905Z,100712.89
2019-05-17T22:30:55.545Z,100715.48
2019-05-17T22:33:23.288Z,100719.57
2019-05-17T22:35:51.049Z,100717.21
2019-05-17T22:38:18.924Z,100714.26
2019-05-17T22:40:47.730Z,100712.10
2019-05-17T22:43:18.294Z,100714.95
2019-05-17T22:45:46.222Z,100712.93
2019-05-17T22:48:16.153Z,100710.34
2019-05-17T22:50:45.133Z,100709.70
2019-05-17T22:53:12.966Z,100718.84
2019-05-17T22:55:40.785Z,100719.83
2019-05-17T22:58:08.747Z,100717.69
2019-05-17T23:00:36.463Z,100718.55
2019-05-17T23:03:04.427Z,100718.31
2019-05-17T23:05:33.143Z,100719.11
2019-05-17T23:08:02.609Z,100714.72
2019-05-17T23:10:35.002Z,100705.93
2019-05-17T23:13:01.507Z,100712.43
2019-05-17T23:15:32.339Z,100712.52
2019-05-17T23:18:00.249Z,100699.90
2019-05-17T23:20:28.299Z,100705.31
2019-05-17T23:22:56.080Z,100705.03
2019-05-17T23:25:23.801Z,100706.34
2019-05-17T23:27:51.922Z,100704.75
2019-05-17T23:30:19.624Z,100708.16
2019-05-17T23:32:49.140Z,100704.47
2019-05-17T23:35:17.092Z,100705.33
2019-05-17T23:37:44.925Z,100706.00
2019-05-17T23:40:13.545Z,100703.29
2019-05-17T23:42:41.254Z,100705.15
2019-05-17T23:45:09.785Z,100704.68
2019-05-17T23:47:37.514Z,100702.54
2019-05-17T23:50:05.794Z,100701.97
2019-05-17T23:52:33.872Z,100698.81
2019-05-17T23:55:04.430Z,100703.20
2019-05-17T23:57:32.178Z,100704.32
